createdAt,value
2023-04-15T00:00:58.301Z,100916.19
2023-04-15T00:03:25.396Z,100920.72
2023-04-15T00:05:52.080Z,100918.09
2023-04-15T00:08:18.581Z,100918.84
2023-04-15T00:10:46.476Z,100916.19
2023-04-15T00:13:13.302Z,100919.25
2023-04-15T00:15:39.811Z,100922.34
2023-04-15T00:18:08.007Z,100924.63
2023-04-15T00:20:35.312Z,100925.47
2023-04-15T00:23:02.576Z,100911.88
2023-04-15T00:25:29.308Z,100916.44
2023-04-15T00:27:55.856Z,100916.09
2023-04-15T00:30:23.990Z,100909.72
2023-04-15T00:32:50.600Z,100915.44
2023-04-15T00:35:21.599Z,100916.59
2023-04-15T00:37:48.282Z,100917.81
2023-04-15T00:40:18.798Z,100920.19
2023-04-15T00:42:45.536Z,100912.31
2023-04-15T00:45:12.862Z,100920.31
2023-04-15T00:47:41.717Z,100921.53
2023-04-15T00:50:08.813Z,100916.00
2023-04-15T00:52:35.320Z,100925.16
2023-04-15T00:55:02.470Z,100927.13
2023-04-15T00:57:30.133Z,100927.28
2023-04-15T00:59:57.156Z,100922.03
2023-04-15T01:02:24.125Z,100921.75
2023-04-15T01:04:51.275Z,100917.69
2023-04-15T01:07:18.041Z,100913.28
2023-04-15T01:09:45.659Z,100921.72
2023-04-15T01:12:14.063Z,100927.13
2023-04-15T01:14:41.081Z,100924.13
2023-04-15T01:17:07.617Z,100923.44
2023-04-15T01:19:34.580Z,100926.88
2023-04-15T01:22:03.216Z,100923.16
2023-04-15T01:24:31.609Z,100922.41
2023-04-15T01:26:58.499Z,100925.06
2023-04-15T01:29:25.317Z,100914.88
2023-04-15T01:31:53.595Z,100916.78
2023-04-15T01:34:21.055Z,100923.56
2023-04-15T01:36:48.039Z,100922.81
2023-04-15T01:39:15.134Z,100920.16
2023-04-15T01:41:42.385Z,100924.31
2023-04-15T01:44:08.973Z,100916.44
2023-04-15T01:46:37.046Z,100916.91
2023-04-15T01:49:03.552Z,100922.25
2023-04-15T01:51:32.159Z,100922.63
2023-04-15T01:53:58.885Z,100927.19
2023-04-15T01:56:25.529Z,100920.84
2023-04-15T01:58:52.781Z,100920.13
2023-04-15T02:01:19.906Z,100925.09
2023-04-15T02:03:47.732Z,100924.72
2023-04-15T02:06:15.303Z,100920.63
2023-04-15T02:08:41.864Z,100920.28
2023-04-15T02:11:08.422Z,100920.72
2023-04-15T02:13:35.039Z,100923.44
2023-04-15T02:16:01.824Z,100931.41
2023-04-15T02:18:28.586Z,100928.06
2023-04-15T02:20:57.208Z,100934.53
2023-04-15T02:23:23.741Z,100934.59
2023-04-15T02:25:53.822Z,100941.09
2023-04-15T02:28:21.420Z,100944.19
2023-04-15T02:30:50.890Z,100940.44
2023-04-15T02:33:17.497Z,100940.84
2023-04-15T02:35:45.291Z,100946.94
2023-04-15T02:38:12.205Z,100950.00
2023-04-15T02:40:38.734Z,100955.69
2023-04-15T02:43:07.312Z,100951.56
2023-04-15T02:45:34.619Z,100966.66
2023-04-15T02:48:06.452Z,100959.50
2023-04-15T02:50:33.317Z,100961.81
2023-04-15T02:53:01.201Z,100954.72
2023-04-15T02:55:28.606Z,100963.78
2023-04-15T02:57:55.522Z,100966.06
2023-04-15T03:00:22.456Z,100970.66
2023-04-15T03:02:52.437Z,100969.97
2023-04-15T03:05:19.107Z,100973.41
2023-04-15T03:07:51.215Z,100971.94
2023-04-15T03:10:18.522Z,100970.84
2023-04-15T03:12:46.440Z,100973.88
2023-04-15T03:15:17.492Z,100974.25
2023-04-15T03:17:49.416Z,100981.44
2023-04-15T03:20:16.963Z,100975.84
2023-04-15T03:22:43.696Z,100978.88
2023-04-15T03:25:10.623Z,100984.94
2023-04-15T03:27:38.655Z,100991.00
2023-04-15T03:30:06.652Z,100988.00
2023-04-15T03:32:35.975Z,100987.63
2023-04-15T03:35:02.605Z,100987.69
2023-04-15T03:37:29.118Z,100987.34
2023-04-15T03:39:55.574Z,100987.00
2023-04-15T03:42:22.300Z,100992.69
2023-04-15T03:44:48.773Z,100988.94
2023-04-15T03:47:15.565Z,101002.91
2023-04-15T03:49:42.088Z,100999.91
2023-04-15T03:52:08.580Z,101004.47
2023-04-15T03:54:35.068Z,101004.53
2023-04-15T03:57:01.718Z,101010.19
2023-04-15T03:59:28.242Z,101019.25
2023-04-15T04:01:54.798Z,101006.47
2023-04-15T04:04:21.611Z,101015.97
2023-04-15T04:06:48.160Z,101019.00
2023-04-15T04:09:14.622Z,101025.03
2023-04-15T04:11:41.071Z,101028.44
2023-04-15T04:14:07.627Z,101031.13
2023-04-15T04:16:34.113Z,101033.00
2023-04-15T04:19:00.787Z,101030.75
2023-04-15T04:21:28.087Z,101038.31
2023-04-15T04:23:54.842Z,101040.59
2023-04-15T04:26:22.297Z,101041.75
2023-04-15T04:28:48.762Z,101048.16
2023-04-15T04:31:15.424Z,101049.69
2023-04-15T04:33:41.918Z,101053.84
2023-04-15T04:36:08.447Z,101056.09
2023-04-15T04:38:34.954Z,101058.38
2023-04-15T04:41:01.410Z,101062.19
2023-04-15T04:43:27.895Z,101067.47
2023-04-15T04:45:54.476Z,101077.28
2023-04-15T04:48:21.254Z,101072.41
2023-04-15T04:50:47.981Z,101079.94
2023-04-15T04:53:15.061Z,101084.47
2023-04-15T04:55:41.542Z,101091.97
2023-04-15T04:58:08.052Z,101094.63
2023-04-15T05:00:34.809Z,101096.88
2023-04-15T05:03:01.645Z,101091.22
2023-04-15T05:05:28.416Z,101102.13
2023-04-15T05:07:54.925Z,101109.25
2023-04-15T05:10:21.578Z,101104.72
2023-04-15T05:12:48.121Z,101113.38
2023-04-15T05:15:14.561Z,101117.13
2023-04-15T05:17:41.002Z,101121.59
2023-04-15T05:20:08.269Z,101119.69
2023-04-15T05:22:34.854Z,101125.31
2023-04-15T05:25:01.319Z,101131.31
2023-04-15T05:27:27.792Z,101131.28
2023-04-15T05:29:54.254Z,101134.25
2023-04-15T05:32:20.740Z,101140.63
2023-04-15T05:34:47.361Z,101142.06
2023-04-15T05:37:14.033Z,101146.16
2023-04-15T05:39:40.452Z,101154.34
2023-04-15T05:42:06.992Z,101154.22
2023-04-15T05:44:33.642Z,101162.06
2023-04-15T05:47:00.172Z,101159.94
2023-04-15T05:49:27.551Z,101163.44
2023-04-15T05:51:54.064Z,101173.78
2023-04-15T05:54:21.945Z,101179.28
2023-04-15T05:56:48.818Z,101182.69
2023-04-15T05:59:15.633Z,101182.56
2023-04-15T06:01:42.064Z,101186.88
2023-04-15T06:04:09.783Z,101183.50
2023-04-15T06:06:36.395Z,101189.22
2023-04-15T06:09:03.042Z,101190.78
2023-04-15T06:11:29.563Z,101192.13
2023-04-15T06:13:56.581Z,101199.84
2023-04-15T06:16:23.379Z,101207.56
2023-04-15T06:18:49.885Z,101209.72
2023-04-15T06:21:16.316Z,101219.22
2023-04-15T06:23:42.854Z,101213.41
2023-04-15T06:26:09.387Z,101224.25
2023-04-15T06:28:36.071Z,101226.78
2023-04-15T06:31:03.025Z,101229.53
2023-04-15T06:33:29.498Z,101237.41
2023-04-15T06:35:55.898Z,101239.31
2023-04-15T06:38:22.390Z,101237.41
2023-04-15T06:40:48.792Z,101240.94
2023-04-15T06:43:15.367Z,101248.78
2023-04-15T06:45:41.900Z,101256.88
2023-04-15T06:48:08.496Z,101257.88
2023-04-15T06:50:35.676Z,101264.41
2023-04-15T06:53:03.065Z,101268.22
2023-04-15T06:55:29.783Z,101269.56
2023-04-15T06:57:56.405Z,101272.28
2023-04-15T07:00:22.964Z,101286.72
2023-04-15T07:02:49.445Z,101287.91
2023-04-15T07:05:16.178Z,101284.53
2023-04-15T07:07:42.792Z,101299.91
2023-04-15T07:10:10.048Z,101301.00
2023-04-15T07:12:36.657Z,101305.97
2023-04-15T07:15:03.768Z,101301.22
2023-04-15T07:17:30.276Z,101314.69
2023-04-15T07:19:56.865Z,101313.50
2023-04-15T07:22:23.448Z,101317.00
2023-04-15T07:24:49.906Z,101323.72
2023-04-15T07:27:17.899Z,101323.63
2023-04-15T07:29:44.343Z,101325.78
2023-04-15T07:32:10.894Z,101325.09
2023-04-15T07:34:38.058Z,101332.47
2023-04-15T07:37:04.651Z,101335.44
2023-04-15T07:39:31.177Z,101334.09
2023-04-15T07:41:58.976Z,101336.63
2023-04-15T07:44:26.845Z,101339.44
2023-04-15T07:46:53.985Z,101350.84
2023-04-15T07:49:21.446Z,101349.88
2023-04-15T07:51:49.116Z,101349.34
2023-04-15T07:54:16.254Z,101364.06
2023-04-15T07:56:42.989Z,101354.38
2023-04-15T07:59:10.031Z,101353.16
2023-04-15T08:01:36.741Z,101358.47
2023-04-15T08:04:03.763Z,101362.47
2023-04-15T08:06:30.803Z,101359.56
2023-04-15T08:08:57.542Z,101369.25
2023-04-15T08:11:24.485Z,101372.59
2023-04-15T08:13:52.076Z,101371.72
2023-04-15T08:16:19.054Z,101373.59
2023-04-15T08:18:47.282Z,101384.91
2023-04-15T08:21:14.068Z,101375.03
2023-04-15T08:23:40.893Z,101385.50
2023-04-15T08:26:08.613Z,101390.09
2023-04-15T08:28:37.665Z,101381.94
2023-04-15T08:31:04.217Z,101386.75
2023-04-15T08:33:31.119Z,101383.69
2023-04-15T08:35:57.784Z,101386.56
2023-04-15T08:38:24.238Z,101393.56
2023-04-15T08:40:50.837Z,101398.91
2023-04-15T08:43:28.512Z,101405.94
2023-04-15T08:45:55.823Z,101410.28
2023-04-15T08:48:24.531Z,101409.78
2023-04-15T08:50:51.873Z,101427.91
2023-04-15T08:53:18.735Z,101427.25
2023-04-15T08:55:46.537Z,101432.53
2023-04-15T08:58:14.180Z,101433.13
2023-04-15T09:00:42.051Z,101443.69
2023-04-15T09:03:09.747Z,101441.16
2023-04-15T09:05:37.495Z,101436.03
2023-04-15T09:08:05.577Z,101444.13
2023-04-15T09:10:33.684Z,101451.31
2023-04-15T09:13:02.016Z,101451.84
2023-04-15T09:15:29.784Z,101458.00
2023-04-15T09:17:56.889Z,101466.34
2023-04-15T09:20:23.897Z,101466.94
2023-04-15T09:22:51.987Z,101467.53
2023-04-15T09:25:21.404Z,101475.41
2023-04-15T09:27:51.675Z,101479.72
2023-04-15T09:30:18.328Z,101488.19
2023-04-15T09:32:56.456Z,101488.66
2023-04-15T09:35:24.222Z,101488.47
2023-04-15T09:37:51.382Z,101489.25
2023-04-15T09:40:33.801Z,101483.16
2023-04-15T09:43:01.933Z,101490.41
2023-04-15T09:45:29.862Z,101479.00
2023-04-15T09:47:59.165Z,101488.97
2023-04-15T09:50:29.641Z,101496.22
2023-04-15T09:52:56.490Z,101486.28
2023-04-15T09:55:23.212Z,101497.28
2023-04-15T09:57:49.781Z,101509.06
2023-04-15T10:00:16.451Z,101497.16
2023-04-15T10:02:43.697Z,101504.47
2023-04-15T10:05:12.023Z,101509.09
2023-04-15T10:07:41.177Z,101502.22
2023-04-15T10:10:07.964Z,101516.56
2023-04-15T10:12:37.391Z,101514.19
2023-04-15T10:15:05.557Z,101518.06
2023-04-15T10:17:35.254Z,101518.03
2023-04-15T10:20:04.726Z,101512.09
2023-04-15T10:22:32.636Z,101517.16
2023-04-15T10:25:02.527Z,101523.13
2023-04-15T10:27:29.405Z,101519.09
2023-04-15T10:29:56.917Z,101522.97
2023-04-15T10:32:25.684Z,101521.03
2023-04-15T10:34:54.634Z,101520.84
2023-04-15T10:37:41.710Z,101531.25
2023-04-15T10:40:31.723Z,101532.72
2023-04-15T10:43:00.254Z,101529.75
2023-04-15T10:45:28.489Z,101531.31
2023-04-15T10:47:57.230Z,101535.44
2023-04-15T10:50:26.627Z,101540.81
2023-04-15T10:52:53.144Z,101546.16
2023-04-15T10:55:22.527Z,101542.91
2023-04-15T10:57:59.677Z,101539.03
2023-04-15T11:00:28.897Z,101542.31
2023-04-15T11:02:58.251Z,101554.53
2023-04-15T11:05:54.527Z,101566.59
2023-04-15T11:08:54.479Z,101557.78
2023-04-15T11:11:21.209Z,101559.84
2023-04-15T11:13:50.206Z,101562.53
2023-04-15T11:16:17.010Z,101558.50
2023-04-15T11:18:53.931Z,101564.81
2023-04-15T11:21:25.738Z,101577.03
2023-04-15T11:23:52.602Z,101568.47
2023-04-15T11:26:19.160Z,101570.56
2023-04-15T11:28:46.259Z,101561.31
2023-04-15T11:31:18.252Z,101562.63
2023-04-15T11:33:46.061Z,101571.41
2023-04-15T11:36:12.698Z,101563.72
2023-04-15T11:38:42.725Z,101572.69
2023-04-15T11:41:09.280Z,101577.28
2023-04-15T11:43:35.865Z,101574.13
2023-04-15T11:46:03.216Z,101569.97
2023-04-15T11:48:34.329Z,101569.97
2023-04-15T11:51:06.464Z,101584.88
2023-04-15T11:53:46.740Z,101585.63
2023-04-15T11:56:21.505Z,101600.81
2023-04-15T11:58:51.661Z,101590.53
2023-04-15T12:01:18.617Z,101593.22
2023-04-15T12:03:47.131Z,101604.09
2023-04-15T12:06:21.835Z,101593.66
2023-04-15T12:09:00.474Z,101598.72
2023-04-15T12:11:29.459Z,101613.91
2023-04-15T12:13:58.372Z,101624.63
2023-04-15T12:16:27.866Z,101618.09
2023-04-15T12:18:56.911Z,101623.91
2023-04-15T12:21:25.744Z,101627.63
2023-04-15T12:23:54.771Z,101633.59
2023-04-15T12:26:35.027Z,101634.47
2023-04-15T12:29:02.252Z,101622.13
2023-04-15T12:31:29.092Z,101632.09
2023-04-15T12:33:56.735Z,101636.13
2023-04-15T12:36:23.699Z,101642.50
2023-04-15T12:38:50.457Z,101638.03
2023-04-15T12:41:16.934Z,101646.06
2023-04-15T12:43:47.031Z,101650.34
2023-04-15T12:46:14.040Z,101646.06
2023-04-15T12:48:40.588Z,101650.75
2023-04-15T12:51:07.073Z,101665.56
2023-04-15T12:53:33.609Z,101662.38
2023-04-15T12:56:00.133Z,101666.09
2023-04-15T12:58:27.552Z,101660.88
2023-04-15T13:00:55.419Z,101689.19
2023-04-15T13:03:22.009Z,101669.59
2023-04-15T13:05:48.571Z,101674.06
2023-04-15T13:08:15.589Z,101675.81
2023-04-15T13:10:42.485Z,101674.28
2023-04-15T13:13:09.133Z,101680.88
2023-04-15T13:15:35.914Z,101696.47
2023-04-15T13:18:02.964Z,101703.72
2023-04-15T13:20:29.533Z,101707.03
2023-04-15T13:22:56.211Z,101703.50
2023-04-15T13:25:22.656Z,101699.75
2023-04-15T13:27:49.886Z,101705.94
2023-04-15T13:30:16.480Z,101711.38
2023-04-15T13:32:43.096Z,101715.16
2023-04-15T13:35:09.679Z,101708.53
2023-04-15T13:37:36.444Z,101717.69
2023-04-15T13:40:03.387Z,101721.81
2023-04-15T13:42:29.871Z,101734.13
2023-04-15T13:44:56.474Z,101734.78
2023-04-15T13:47:22.998Z,101736.28
2023-04-15T13:49:49.511Z,101745.03
2023-04-15T13:52:16.031Z,101746.47
2023-04-15T13:54:42.512Z,101740.09
2023-04-15T13:57:09.164Z,101746.53
2023-04-15T13:59:35.834Z,101744.72
2023-04-15T14:02:02.805Z,101754.03
2023-04-15T14:04:30.487Z,101742.81
2023-04-15T14:06:57.047Z,101745.53
2023-04-15T14:09:26.260Z,101745.34
2023-04-15T14:11:53.407Z,101759.47
2023-04-15T14:14:22.898Z,101759.59
2023-04-15T14:16:49.401Z,101766.53
2023-04-15T14:19:16.191Z,101771.13
2023-04-15T14:21:42.651Z,101765.03
2023-04-15T14:24:09.741Z,101770.06
2023-04-15T14:26:36.184Z,101781.13
2023-04-15T14:29:02.837Z,101789.75
2023-04-15T14:31:29.607Z,101788.22
2023-04-15T14:33:56.161Z,101803.56
2023-04-15T14:36:22.788Z,101802.06
2023-04-15T14:38:49.326Z,101805.72
2023-04-15T14:41:16.117Z,101805.91
2023-04-15T14:43:42.648Z,101803.03
2023-04-15T14:46:10.563Z,101800.56
2023-04-15T14:48:37.374Z,101801.75
2023-04-15T14:51:03.962Z,101815.53
2023-04-15T14:53:30.486Z,101817.00
2023-04-15T14:55:56.998Z,101810.19
2023-04-15T14:58:23.474Z,101815.28
2023-04-15T15:00:50.052Z,101839.19
2023-04-15T15:03:16.666Z,101860.38
2023-04-15T15:05:46.360Z,101840.88
2023-04-15T15:08:13.776Z,101846.97
2023-04-15T15:10:49.091Z,101841.13
2023-04-15T15:13:17.045Z,101842.56
2023-04-15T15:15:43.765Z,101849.53
2023-04-15T15:18:10.710Z,101834.16
2023-04-15T15:20:37.267Z,101860.03
2023-04-15T15:23:03.762Z,101858.53
2023-04-15T15:25:30.363Z,101859.13
2023-04-15T15:27:57.841Z,101859.13
2023-04-15T15:30:24.361Z,101859.78
2023-04-15T15:32:51.262Z,101864.59
2023-04-15T15:35:17.874Z,101869.31
2023-04-15T15:37:45.866Z,101866.91
2023-04-15T15:40:12.747Z,101867.22
2023-04-15T15:42:39.316Z,101871.16
2023-04-15T15:45:06.407Z,101873.97
2023-04-15T15:47:33.198Z,101878.75
2023-04-15T15:50:01.062Z,101901.56
2023-04-15T15:52:27.765Z,101878.22
2023-04-15T15:54:54.226Z,101886.66
2023-04-15T15:57:20.785Z,101891.00
2023-04-15T15:59:47.230Z,101898.69
2023-04-15T16:02:14.346Z,101893.09
2023-04-15T16:04:41.633Z,101899.91
2023-04-15T16:07:08.235Z,101896.66
2023-04-15T16:09:35.002Z,101903.06
2023-04-15T16:12:01.988Z,101911.41
2023-04-15T16:14:28.640Z,101916.03
2023-04-15T16:16:55.302Z,101919.13
2023-04-15T16:19:21.854Z,101932.25
2023-04-15T16:21:48.770Z,101919.47
2023-04-15T16:24:15.247Z,101921.56
2023-04-15T16:26:42.128Z,101929.59
2023-04-15T16:29:08.734Z,101921.28
2023-04-15T16:31:35.957Z,101932.34
2023-04-15T16:34:02.659Z,101937.31
2023-04-15T16:36:29.171Z,101932.41
2023-04-15T16:38:55.856Z,101939.59
2023-04-15T16:41:22.335Z,101941.13
2023-04-15T16:43:48.915Z,101962.09
2023-04-15T16:46:15.608Z,101946.28
2023-04-15T16:48:42.117Z,101941.03
2023-04-15T16:51:08.683Z,101949.69
2023-04-15T16:53:35.344Z,101952.41
2023-04-15T16:56:01.829Z,101952.53
2023-04-15T16:58:28.828Z,101982.91
2023-04-15T17:00:55.632Z,101965.81
2023-04-15T17:03:22.321Z,101961.34
2023-04-15T17:05:48.895Z,101969.69
2023-04-15T17:08:15.404Z,101980.81
2023-04-15T17:10:41.911Z,101959.94
2023-04-15T17:13:08.490Z,101958.06
2023-04-15T17:15:35.314Z,101961.47
2023-04-15T17:18:02.393Z,101964.16
2023-04-15T17:20:29.984Z,101973.97
2023-04-15T17:22:56.877Z,101972.47
2023-04-15T17:25:23.477Z,101966.78
2023-04-15T17:27:50.000Z,101982.75
2023-04-15T17:30:16.616Z,101985.44
2023-04-15T17:32:43.208Z,101984.72
2023-04-15T17:35:10.080Z,101992.72
2023-04-15T17:37:37.288Z,101991.25
2023-04-15T17:40:05.866Z,101985.63
2023-04-15T17:42:33.850Z,101995.13
2023-04-15T17:45:00.318Z,101990.22
2023-04-15T17:47:27.773Z,101987.94
2023-04-15T17:49:54.278Z,101994.81
2023-04-15T17:52:20.860Z,102002.41
2023-04-15T17:54:47.395Z,102008.47
2023-04-15T17:57:16.094Z,102016.44
2023-04-15T17:59:47.367Z,102014.97
2023-04-15T18:02:14.885Z,102019.53
2023-04-15T18:04:41.668Z,102018.03
2023-04-15T18:07:08.730Z,102021.44
2023-04-15T18:09:36.279Z,102027.53
2023-04-15T18:12:04.428Z,102022.25
2023-04-15T18:14:34.577Z,102018.84
2023-04-15T18:17:02.680Z,102033.63
2023-04-15T18:19:30.556Z,102030.59
2023-04-15T18:21:57.943Z,102032.13
2023-04-15T18:24:24.389Z,102036.31
2023-04-15T18:26:52.207Z,102035.22
2023-04-15T18:29:18.695Z,102042.41
2023-04-15T18:31:45.192Z,102049.66
2023-04-15T18:34:11.718Z,102052.38
2023-04-15T18:36:38.196Z,102053.09
2023-04-15T18:39:05.256Z,102058.00
2023-04-15T18:41:31.977Z,102056.56
2023-04-15T18:43:58.451Z,102055.81
2023-04-15T18:46:25.072Z,102060.41
2023-04-15T18:48:51.523Z,102057.03
2023-04-15T18:51:17.972Z,102067.25
2023-04-15T18:53:44.573Z,102065.38
2023-04-15T18:56:11.426Z,102071.47
2023-04-15T18:59:09.004Z,102078.31
2023-04-15T19:01:24.524Z,102081.34
2023-04-15T19:03:51.222Z,102076.81
2023-04-15T19:06:17.737Z,102090.47
2023-04-15T19:08:44.215Z,102089.72
2023-04-15T19:11:10.923Z,102088.19
2023-04-15T19:13:37.374Z,102092.00
2023-04-15T19:16:04.022Z,102086.38
2023-04-15T19:18:30.626Z,102102.66
2023-04-15T19:20:57.380Z,102093.59
2023-04-15T19:23:23.925Z,102091.31
2023-04-15T19:25:50.478Z,102087.91
2023-04-15T19:28:16.930Z,102101.94
2023-04-15T19:30:43.363Z,102097.41
2023-04-15T19:33:09.785Z,102097.78
2023-04-15T19:35:38.181Z,102106.13
2023-04-15T19:38:04.910Z,102102.72
2023-04-15T19:40:31.377Z,102103.09
2023-04-15T19:43:00.109Z,102126.59
2023-04-15T19:45:26.600Z,102117.13
2023-04-15T19:47:53.813Z,102112.97
2023-04-15T19:50:24.554Z,102110.31
2023-04-15T19:52:51.067Z,102122.81
2023-04-15T19:55:17.700Z,102119.03
2023-04-15T19:57:44.180Z,102114.13
2023-04-15T20:00:11.266Z,102122.06
2023-04-15T20:02:37.976Z,102118.28
2023-04-15T20:05:04.902Z,102122.06
2023-04-15T20:07:31.285Z,102119.41
2023-04-15T20:09:57.722Z,102122.44
2023-04-15T20:12:50.314Z,102130.03
2023-04-15T20:15:10.938Z,102125.88
2023-04-15T20:17:37.602Z,102123.22
2023-04-15T20:20:05.212Z,102114.91
2023-04-15T20:22:32.353Z,102118.69
2023-04-15T20:24:59.919Z,102120.19
2023-04-15T20:27:26.381Z,102121.72
2023-04-15T20:29:52.880Z,102128.91
2023-04-15T20:32:19.458Z,102125.50
2023-04-15T20:34:46.328Z,102134.59
2023-04-15T20:37:13.131Z,102136.09
2023-04-15T20:39:40.615Z,102132.69
2023-04-15T20:42:10.236Z,102121.34
2023-04-15T20:44:38.641Z,102122.84
2023-04-15T20:47:06.307Z,102127.03
2023-04-15T20:49:37.076Z,102139.13
2023-04-15T20:52:05.573Z,102139.53
2023-04-15T20:54:32.169Z,102127.41
2023-04-15T20:56:58.740Z,102139.16
2023-04-15T20:59:25.500Z,102134.22
2023-04-15T21:01:52.061Z,102134.97
2023-04-15T21:04:18.929Z,102138.00
2023-04-15T21:06:45.457Z,102140.66
2023-04-15T21:09:11.958Z,102147.84
2023-04-15T21:11:57.283Z,102143.31
2023-04-15T21:14:24.862Z,102142.56
2023-04-15T21:16:51.317Z,102148.25
2023-04-15T21:19:17.768Z,102142.94
2023-04-15T21:21:44.193Z,102149.38
2023-04-15T21:24:10.685Z,102150.13
2023-04-15T21:26:37.204Z,102144.06
2023-04-15T21:29:03.925Z,102149.00
2023-04-15T21:31:30.689Z,102153.56
2023-04-15T21:33:57.238Z,102157.34
2023-04-15T21:36:23.688Z,102153.56
2023-04-15T21:38:50.298Z,102159.97
2023-04-15T21:41:16.876Z,102167.56
2023-04-15T21:43:43.342Z,102161.88
2023-04-15T21:46:23.124Z,102154.34
2023-04-15T21:48:52.422Z,102152.84
2023-04-15T21:51:19.010Z,102147.53
2023-04-15T21:53:45.538Z,102163.44
2023-04-15T21:56:11.936Z,102166.84
2023-04-15T21:58:38.394Z,102158.53
2023-04-15T22:01:05.030Z,102166.09
2023-04-15T22:03:34.069Z,102177.81
2023-04-15T22:06:04.003Z,102169.13
2023-04-15T22:08:36.089Z,102183.13
2023-04-15T22:11:20.771Z,102181.22
2023-04-15T22:13:47.174Z,102184.25
2023-04-15T22:16:13.668Z,102187.66
2023-04-15T22:18:40.230Z,102191.03
2023-04-15T22:21:07.817Z,102189.16
2023-04-15T22:23:34.306Z,102186.50
2023-04-15T22:26:00.877Z,102180.81
2023-04-15T22:28:27.503Z,102183.47
2023-04-15T22:30:54.523Z,102185.72
2023-04-15T22:33:21.103Z,102182.72
2023-04-15T22:35:47.590Z,102193.31
2023-04-15T22:38:14.114Z,102192.16
2023-04-15T22:40:40.543Z,102194.44
2023-04-15T22:43:06.939Z,102191.41
2023-04-15T22:45:33.411Z,102195.56
2023-04-15T22:47:59.838Z,102200.13
2023-04-15T22:50:26.524Z,102205.78
2023-04-15T22:52:53.050Z,102197.06
2023-04-15T22:55:19.546Z,102200.09
2023-04-15T22:57:45.980Z,102194.03
2023-04-15T23:00:12.803Z,102206.91
2023-04-15T23:02:39.298Z,102206.53
2023-04-15T23:05:12.736Z,102211.84
2023-04-15T23:07:39.925Z,102212.97
2023-04-15T23:10:07.878Z,102215.25
2023-04-15T23:12:34.420Z,102220.91
2023-04-15T23:15:00.892Z,102227.34
2023-04-15T23:17:28.416Z,102222.44
2023-04-15T23:19:54.910Z,102223.56
2023-04-15T23:22:21.399Z,102222.06
2023-04-15T23:24:47.808Z,102227.75
2023-04-15T23:27:14.214Z,102227.75
2023-04-15T23:29:40.755Z,102232.66
2023-04-15T23:32:07.248Z,102227.34
2023-04-15T23:34:33.710Z,102233.78
2023-04-15T23:37:00.353Z,102225.84
2023-04-15T23:39:27.152Z,102233.78
2023-04-15T23:41:53.743Z,102235.69
2023-04-15T23:44:20.314Z,102236.44
2023-04-15T23:46:46.964Z,102237.59
2023-04-15T23:49:13.529Z,102239.47
2023-04-15T23:51:40.042Z,102231.53
2023-04-15T23:54:06.623Z,102244.03
2023-04-15T23:56:33.141Z,102245.91
2023-04-15T23:58:59.605Z,102234.56
